sensor_id;sensor_type;location;lat;lon;timestamp;temperature;humidity
27226;DHT22;14732;51.074;3.788;2022-10-16T00:01:19;15.90;99.90
27226;DHT22;14732;51.074;3.788;2022-10-16T00:03:46;15.80;99.90
27226;DHT22;14732;51.074;3.788;2022-10-16T00:06:13;15.70;99.90
27226;DHT22;14732;51.074;3.788;2022-10-16T00:08:39;15.70;99.90
27226;DHT22;14732;51.074;3.788;2022-10-16T00:11:08;15.70;99.90
27226;DHT22;14732;51.074;3.788;2022-10-16T00:13:37;15.70;99.90
27226;DHT22;14732;51.074;3.788;2022-10-16T00:16:03;15.70;99.90
27226;DHT22;14732;51.074;3.788;2022-10-16T00:18:29;15.70;99.90
27226;DHT22;14732;51.074;3.788;2022-10-16T00:21:01;15.70;99.90
27226;DHT22;14732;51.074;3.788;2022-10-16T00:23:26;15.60;99.90
27226;DHT22;14732;51.074;3.788;2022-10-16T00:25:57;15.60;99.90
27226;DHT22;14732;51.074;3.788;2022-10-16T00:28:23;15.60;99.90
27226;DHT22;14732;51.074;3.788;2022-10-16T00:30:49;15.60;99.90
27226;DHT22;14732;51.074;3.788;2022-10-16T00:33:15;15.40;99.90
27226;DHT22;14732;51.074;3.788;2022-10-16T00:35:40;15.40;99.90
27226;DHT22;14732;51.074;3.788;2022-10-16T00:38:06;15.40;99.90
27226;DHT22;14732;51.074;3.788;2022-10-16T00:40:31;15.30;99.90
27226;DHT22;14732;51.074;3.788;2022-10-16T00:42:57;15.30;99.90
27226;DHT22;14732;51.074;3.788;2022-10-16T00:45:23;15.10;99.90
27226;DHT22;14732;51.074;3.788;2022-10-16T00:47:50;15.00;99.90
27226;DHT22;14732;51.074;3.788;2022-10-16T00:50:33;14.90;99.90
27226;DHT22;14732;51.074;3.788;2022-10-16T00:53:01;14.90;99.90
27226;DHT22;14732;51.074;3.788;2022-10-16T00:55:28;15.00;99.90
27226;DHT22;14732;51.074;3.788;2022-10-16T00:57:56;15.00;99.90
27226;DHT22;14732;51.074;3.788;2022-10-16T01:00:24;15.10;99.90
27226;DHT22;14732;51.074;3.788;2022-10-16T01:02:58;15.10;99.90
27226;DHT22;14732;51.074;3.788;2022-10-16T01:05:41;15.20;99.90
27226;DHT22;14732;51.074;3.788;2022-10-16T01:08:17;15.20;99.90
27226;DHT22;14732;51.074;3.788;2022-10-16T01:10:46;15.20;99.90
27226;DHT22;14732;51.074;3.788;2022-10-16T01:13:33;15.20;99.90
27226;DHT22;14732;51.074;3.788;2022-10-16T01:16:07;15.20;99.90
27226;DHT22;14732;51.074;3.788;2022-10-16T01:18:44;15.20;99.90
27226;DHT22;14732;51.074;3.788;2022-10-16T01:21:18;15.20;99.90
27226;DHT22;14732;51.074;3.788;2022-10-16T01:23:52;15.20;99.90
27226;DHT22;14732;51.074;3.788;2022-10-16T01:29:28;15.00;99.90
27226;DHT22;14732;51.074;3.788;2022-10-16T01:31:59;15.10;99.90
27226;DHT22;14732;51.074;3.788;2022-10-16T01:34:36;15.10;99.90
27226;DHT22;14732;51.074;3.788;2022-10-16T01:37:07;15.00;99.90
27226;DHT22;14732;51.074;3.788;2022-10-16T01:39:36;14.90;99.90
27226;DHT22;14732;51.074;3.788;2022-10-16T01:42:36;14.90;99.90
27226;DHT22;14732;51.074;3.788;2022-10-16T01:45:05;15.00;99.90
27226;DHT22;14732;51.074;3.788;2022-10-16T01:47:33;15.00;99.90
27226;DHT22;14732;51.074;3.788;2022-10-16T01:50:00;15.00;99.90
27226;DHT22;14732;51.074;3.788;2022-10-16T01:52:28;14.80;99.90
27226;DHT22;14732;51.074;3.788;2022-10-16T01:54:55;14.90;99.90
27226;DHT22;14732;51.074;3.788;2022-10-16T01:57:24;15.00;99.90
27226;DHT22;14732;51.074;3.788;2022-10-16T01:59:54;15.10;99.90
27226;DHT22;14732;51.074;3.788;2022-10-16T02:02:20;15.00;99.90
27226;DHT22;14732;51.074;3.788;2022-10-16T02:04:51;14.90;99.90
27226;DHT22;14732;51.074;3.788;2022-10-16T02:07:18;14.90;99.90
27226;DHT22;14732;51.074;3.788;2022-10-16T02:09:44;14.90;99.90
27226;DHT22;14732;51.074;3.788;2022-10-16T02:12:27;14.90;99.90
27226;DHT22;14732;51.074;3.788;2022-10-16T02:14:54;14.90;99.90
27226;DHT22;14732;51.074;3.788;2022-10-16T02:17:20;14.80;99.90
27226;DHT22;14732;51.074;3.788;2022-10-16T02:19:47;14.90;99.90
27226;DHT22;14732;51.074;3.788;2022-10-16T02:22:44;14.90;99.90
27226;DHT22;14732;51.074;3.788;2022-10-16T02:28:16;14.80;99.90
27226;DHT22;14732;51.074;3.788;2022-10-16T02:30:46;14.80;99.90
27226;DHT22;14732;51.074;3.788;2022-10-16T02:33:16;14.90;99.90
27226;DHT22;14732;51.074;3.788;2022-10-16T02:35:45;14.90;99.90
27226;DHT22;14732;51.074;3.788;2022-10-16T02:38:12;15.00;99.90
27226;DHT22;14732;51.074;3.788;2022-10-16T02:40:39;14.90;99.90
27226;DHT22;14732;51.074;3.788;2022-10-16T02:43:06;15.00;99.90
27226;DHT22;14732;51.074;3.788;2022-10-16T02:45:33;15.00;99.90
27226;DHT22;14732;51.074;3.788;2022-10-16T02:47:59;14.90;99.90
27226;DHT22;14732;51.074;3.788;2022-10-16T02:50:24;14.80;99.90
27226;DHT22;14732;51.074;3.788;2022-10-16T02:52:50;14.90;99.90
27226;DHT22;14732;51.074;3.788;2022-10-16T02:55:16;14.90;99.90
27226;DHT22;14732;51.074;3.788;2022-10-16T02:57:42;14.80;99.90
27226;DHT22;14732;51.074;3.788;2022-10-16T03:00:09;14.90;99.90
27226;DHT22;14732;51.074;3.788;2022-10-16T03:02:37;14.80;99.90
27226;DHT22;14732;51.074;3.788;2022-10-16T03:05:02;14.70;99.90
27226;DHT22;14732;51.074;3.788;2022-10-16T03:07:28;14.80;99.90
27226;DHT22;14732;51.074;3.788;2022-10-16T03:09:54;14.70;99.90
27226;DHT22;14732;51.074;3.788;2022-10-16T03:12:21;14.70;99.90
27226;DHT22;14732;51.074;3.788;2022-10-16T03:14:47;14.90;99.90
27226;DHT22;14732;51.074;3.788;2022-10-16T03:17:13;14.80;99.90
27226;DHT22;14732;51.074;3.788;2022-10-16T03:19:39;14.80;99.90
27226;DHT22;14732;51.074;3.788;2022-10-16T03:22:04;14.80;99.90
27226;DHT22;14732;51.074;3.788;2022-10-16T03:24:30;14.70;99.90
27226;DHT22;14732;51.074;3.788;2022-10-16T03:26:56;14.80;99.90
27226;DHT22;14732;51.074;3.788;2022-10-16T03:29:22;14.90;99.90
27226;DHT22;14732;51.074;3.788;2022-10-16T03:31:47;15.00;99.90
27226;DHT22;14732;51.074;3.788;2022-10-16T03:34:15;15.00;99.90
27226;DHT22;14732;51.074;3.788;2022-10-16T03:36:40;14.90;99.90
27226;DHT22;14732;51.074;3.788;2022-10-16T03:39:06;14.90;99.90
27226;DHT22;14732;51.074;3.788;2022-10-16T03:41:31;14.90;99.90
27226;DHT22;14732;51.074;3.788;2022-10-16T03:43:57;14.80;99.90
27226;DHT22;14732;51.074;3.788;2022-10-16T03:46:23;14.80;99.90
27226;DHT22;14732;51.074;3.788;2022-10-16T03:48:49;14.80;99.90
27226;DHT22;14732;51.074;3.788;2022-10-16T03:51:14;14.70;99.90
27226;DHT22;14732;51.074;3.788;2022-10-16T03:53:40;14.80;99.90
27226;DHT22;14732;51.074;3.788;2022-10-16T03:56:06;14.80;99.90
27226;DHT22;14732;51.074;3.788;2022-10-16T03:58:31;14.90;99.90
27226;DHT22;14732;51.074;3.788;2022-10-16T04:00:57;14.80;99.90
27226;DHT22;14732;51.074;3.788;2022-10-16T04:03:23;14.70;99.90
27226;DHT22;14732;51.074;3.788;2022-10-16T04:05:49;14.80;99.90
27226;DHT22;14732;51.074;3.788;2022-10-16T04:08:15;14.90;99.90
27226;DHT22;14732;51.074;3.788;2022-10-16T04:10:43;14.80;99.90
27226;DHT22;14732;51.074;3.788;2022-10-16T04:13:09;14.80;99.90
27226;DHT22;14732;51.074;3.788;2022-10-16T04:15:34;14.70;99.90
27226;DHT22;14732;51.074;3.788;2022-10-16T04:18:00;14.70;99.90
27226;DHT22;14732;51.074;3.788;2022-10-16T04:20:26;14.70;99.90
27226;DHT22;14732;51.074;3.788;2022-10-16T04:22:51;14.60;99.90
27226;DHT22;14732;51.074;3.788;2022-10-16T04:25:17;14.70;99.90
27226;DHT22;14732;51.074;3.788;2022-10-16T04:27:43;14.60;99.90
27226;DHT22;14732;51.074;3.788;2022-10-16T04:30:09;14.60;99.90
27226;DHT22;14732;51.074;3.788;2022-10-16T04:32:34;14.70;99.90
27226;DHT22;14732;51.074;3.788;2022-10-16T04:35:00;14.70;99.90
27226;DHT22;14732;51.074;3.788;2022-10-16T04:37:26;14.60;99.90
27226;DHT22;14732;51.074;3.788;2022-10-16T04:39:53;14.60;99.90
27226;DHT22;14732;51.074;3.788;2022-10-16T04:42:19;14.70;99.90
27226;DHT22;14732;51.074;3.788;2022-10-16T04:44:45;14.70;99.90
27226;DHT22;14732;51.074;3.788;2022-10-16T04:47:11;14.80;99.90
27226;DHT22;14732;51.074;3.788;2022-10-16T04:49:37;14.70;99.90
27226;DHT22;14732;51.074;3.788;2022-10-16T04:52:03;14.70;99.90
27226;DHT22;14732;51.074;3.788;2022-10-16T04:54:29;14.70;99.90
27226;DHT22;14732;51.074;3.788;2022-10-16T04:56:54;14.50;99.90
27226;DHT22;14732;51.074;3.788;2022-10-16T04:59:20;14.50;99.90
27226;DHT22;14732;51.074;3.788;2022-10-16T05:01:46;14.50;99.90
27226;DHT22;14732;51.074;3.788;2022-10-16T05:04:12;14.60;99.90
27226;DHT22;14732;51.074;3.788;2022-10-16T05:06:38;14.60;99.90
27226;DHT22;14732;51.074;3.788;2022-10-16T05:09:05;14.60;99.90
27226;DHT22;14732;51.074;3.788;2022-10-16T05:11:31;14.50;99.90
27226;DHT22;14732;51.074;3.788;2022-10-16T05:13:57;14.40;99.90
27226;DHT22;14732;51.074;3.788;2022-10-16T05:16:22;14.40;99.90
27226;DHT22;14732;51.074;3.788;2022-10-16T05:18:48;14.50;99.90
27226;DHT22;14732;51.074;3.788;2022-10-16T05:21:14;14.30;99.90
27226;DHT22;14732;51.074;3.788;2022-10-16T05:23:40;14.20;99.90
27226;DHT22;14732;51.074;3.788;2022-10-16T05:26:05;14.30;99.90
27226;DHT22;14732;51.074;3.788;2022-10-16T05:28:31;14.40;99.90
27226;DHT22;14732;51.074;3.788;2022-10-16T05:30:57;14.50;99.90
27226;DHT22;14732;51.074;3.788;2022-10-16T05:33:24;14.30;99.90
27226;DHT22;14732;51.074;3.788;2022-10-16T05:35:50;14.40;99.90
27226;DHT22;14732;51.074;3.788;2022-10-16T05:38:17;14.40;99.90
27226;DHT22;14732;51.074;3.788;2022-10-16T05:40:44;14.40;99.90
27226;DHT22;14732;51.074;3.788;2022-10-16T05:43:15;14.50;99.90
27226;DHT22;14732;51.074;3.788;2022-10-16T05:45:41;14.60;99.90
27226;DHT22;14732;51.074;3.788;2022-10-16T05:48:06;14.70;99.90
27226;DHT22;14732;51.074;3.788;2022-10-16T05:50:32;14.70;99.90
27226;DHT22;14732;51.074;3.788;2022-10-16T05:52:58;14.70;99.90
27226;DHT22;14732;51.074;3.788;2022-10-16T05:55:23;14.70;99.90
27226;DHT22;14732;51.074;3.788;2022-10-16T05:57:49;14.70;99.90
27226;DHT22;14732;51.074;3.788;2022-10-16T06:00:15;14.70;99.90
27226;DHT22;14732;51.074;3.788;2022-10-16T06:02:40;14.60;99.90
27226;DHT22;14732;51.074;3.788;2022-10-16T06:05:06;14.60;99.90
27226;DHT22;14732;51.074;3.788;2022-10-16T06:07:34;14.60;99.90
27226;DHT22;14732;51.074;3.788;2022-10-16T06:10:01;14.60;99.90
27226;DHT22;14732;51.074;3.788;2022-10-16T06:12:27;14.50;99.90
27226;DHT22;14732;51.074;3.788;2022-10-16T06:14:52;14.60;99.90
27226;DHT22;14732;51.074;3.788;2022-10-16T06:17:18;14.60;99.90
27226;DHT22;14732;51.074;3.788;2022-10-16T06:19:44;14.50;99.90
27226;DHT22;14732;51.074;3.788;2022-10-16T06:22:09;14.70;99.90
27226;DHT22;14732;51.074;3.788;2022-10-16T06:24:35;14.70;99.90
27226;DHT22;14732;51.074;3.788;2022-10-16T06:27:01;14.60;99.90
27226;DHT22;14732;51.074;3.788;2022-10-16T06:29:28;14.60;99.90
27226;DHT22;14732;51.074;3.788;2022-10-16T06:31:53;14.60;99.90
27226;DHT22;14732;51.074;3.788;2022-10-16T06:34:19;14.60;99.90
27226;DHT22;14732;51.074;3.788;2022-10-16T06:36:44;14.50;99.90
27226;DHT22;14732;51.074;3.788;2022-10-16T06:39:10;14.50;99.90
27226;DHT22;14732;51.074;3.788;2022-10-16T06:41:36;14.60;99.90
27226;DHT22;14732;51.074;3.788;2022-10-16T06:44:05;14.60;99.90
27226;DHT22;14732;51.074;3.788;2022-10-16T06:46:31;14.50;99.90
27226;DHT22;14732;51.074;3.788;2022-10-16T06:48:57;14.50;99.90
27226;DHT22;14732;51.074;3.788;2022-10-16T06:51:23;14.50;99.90
27226;DHT22;14732;51.074;3.788;2022-10-16T06:53:51;14.50;99.90
27226;DHT22;14732;51.074;3.788;2022-10-16T06:56:23;14.70;99.90
27226;DHT22;14732;51.074;3.788;2022-10-16T06:58:49;14.70;99.90
27226;DHT22;14732;51.074;3.788;2022-10-16T07:01:17;14.80;99.90
27226;DHT22;14732;51.074;3.788;2022-10-16T07:03:44;14.90;99.90
27226;DHT22;14732;51.074;3.788;2022-10-16T07:06:12;15.20;99.90
27226;DHT22;14732;51.074;3.788;2022-10-16T07:08:41;15.20;99.90
27226;DHT22;14732;51.074;3.788;2022-10-16T07:11:09;15.30;99.90
27226;DHT22;14732;51.074;3.788;2022-10-16T07:13:36;15.40;99.90
27226;DHT22;14732;51.074;3.788;2022-10-16T07:16:10;15.40;99.90
27226;DHT22;14732;51.074;3.788;2022-10-16T07:18:36;15.50;99.90
27226;DHT22;14732;51.074;3.788;2022-10-16T07:21:09;15.50;99.90
27226;DHT22;14732;51.074;3.788;2022-10-16T07:23:35;15.70;99.90
27226;DHT22;14732;51.074;3.788;2022-10-16T07:26:01;15.70;99.90
27226;DHT22;14732;51.074;3.788;2022-10-16T07:28:27;15.90;99.90
27226;DHT22;14732;51.074;3.788;2022-10-16T07:30:53;16.00;99.90
27226;DHT22;14732;51.074;3.788;2022-10-16T07:33:18;16.00;99.90
27226;DHT22;14732;51.074;3.788;2022-10-16T07:35:52;15.90;99.90
27226;DHT22;14732;51.074;3.788;2022-10-16T07:38:18;15.90;99.90
27226;DHT22;14732;51.074;3.788;2022-10-16T07:40:44;16.00;99.90
27226;DHT22;14732;51.074;3.788;2022-10-16T07:43:10;16.00;99.90
27226;DHT22;14732;51.074;3.788;2022-10-16T07:45:36;16.10;99.90
27226;DHT22;14732;51.074;3.788;2022-10-16T07:48:01;16.10;99.90
27226;DHT22;14732;51.074;3.788;2022-10-16T07:50:27;16.10;99.90
27226;DHT22;14732;51.074;3.788;2022-10-16T07:52:52;16.30;99.90
27226;DHT22;14732;51.074;3.788;2022-10-16T07:55:18;16.40;99.90
27226;DHT22;14732;51.074;3.788;2022-10-16T07:57:44;16.50;99.90
27226;DHT22;14732;51.074;3.788;2022-10-16T08:00:10;16.60;99.90
27226;DHT22;14732;51.074;3.788;2022-10-16T08:02:42;16.60;99.90
27226;DHT22;14732;51.074;3.788;2022-10-16T08:05:08;16.70;99.90
27226;DHT22;14732;51.074;3.788;2022-10-16T08:07:33;16.90;99.90
27226;DHT22;14732;51.074;3.788;2022-10-16T08:09:59;17.00;99.90
27226;DHT22;14732;51.074;3.788;2022-10-16T08:12:26;17.10;99.90
27226;DHT22;14732;51.074;3.788;2022-10-16T08:14:51;17.20;99.90
27226;DHT22;14732;51.074;3.788;2022-10-16T08:17:17;17.40;99.90
27226;DHT22;14732;51.074;3.788;2022-10-16T08:19:46;17.60;99.90
27226;DHT22;14732;51.074;3.788;2022-10-16T08:22:13;17.90;99.90
27226;DHT22;14732;51.074;3.788;2022-10-16T08:24:38;18.20;99.90
27226;DHT22;14732;51.074;3.788;2022-10-16T08:27:04;18.60;99.90
27226;DHT22;14732;51.074;3.788;2022-10-16T08:29:30;19.60;99.90
27226;DHT22;14732;51.074;3.788;2022-10-16T08:31:55;21.10;99.90
27226;DHT22;14732;51.074;3.788;2022-10-16T08:34:21;23.60;99.90
27226;DHT22;14732;51.074;3.788;2022-10-16T08:36:46;26.10;99.90
27226;DHT22;14732;51.074;3.788;2022-10-16T08:39:12;28.40;99.90
27226;DHT22;14732;51.074;3.788;2022-10-16T08:42:01;29.60;99.90
27226;DHT22;14732;51.074;3.788;2022-10-16T08:47:22;30.30;99.90
27226;DHT22;14732;51.074;3.788;2022-10-16T08:50:00;29.80;99.90
27226;DHT22;14732;51.074;3.788;2022-10-16T08:52:32;28.90;99.90
27226;DHT22;14732;51.074;3.788;2022-10-16T08:54:59;28.30;99.90
27226;DHT22;14732;51.074;3.788;2022-10-16T08:57:25;27.30;99.90
27226;DHT22;14732;51.074;3.788;2022-10-16T08:59:53;26.70;99.90
27226;DHT22;14732;51.074;3.788;2022-10-16T09:02:40;27.20;99.90
27226;DHT22;14732;51.074;3.788;2022-10-16T09:08:05;27.70;99.90
27226;DHT22;14732;51.074;3.788;2022-10-16T09:10:47;27.90;99.90
27226;DHT22;14732;51.074;3.788;2022-10-16T09:13:46;29.10;99.90
27226;DHT22;14732;51.074;3.788;2022-10-16T09:19:05;32.60;98.60
27226;DHT22;14732;51.074;3.788;2022-10-16T09:21:43;32.30;96.20
27226;DHT22;14732;51.074;3.788;2022-10-16T09:24:15;30.80;97.90
27226;DHT22;14732;51.074;3.788;2022-10-16T09:26:42;29.60;98.90
27226;DHT22;14732;51.074;3.788;2022-10-16T09:29:16;28.60;99.90
27226;DHT22;14732;51.074;3.788;2022-10-16T09:31:42;27.20;99.90
27226;DHT22;14732;51.074;3.788;2022-10-16T09:34:36;25.90;99.90
27226;DHT22;14732;51.074;3.788;2022-10-16T09:37:09;24.60;99.90
27226;DHT22;14732;51.074;3.788;2022-10-16T09:39:49;24.10;99.90
27226;DHT22;14732;51.074;3.788;2022-10-16T09:42:19;23.70;99.90
27226;DHT22;14732;51.074;3.788;2022-10-16T09:44:50;23.00;99.90
27226;DHT22;14732;51.074;3.788;2022-10-16T09:47:24;22.60;99.90
27226;DHT22;14732;51.074;3.788;2022-10-16T09:49:57;22.40;99.90
27226;DHT22;14732;51.074;3.788;2022-10-16T10:02:51;21.20;99.90
27226;DHT22;14732;51.074;3.788;2022-10-16T10:05:31;21.20;99.90
27226;DHT22;14732;51.074;3.788;2022-10-16T10:11:51;20.80;99.90
27226;DHT22;14732;51.074;3.788;2022-10-16T11:12:17;21.70;99.90
27226;DHT22;14732;51.074;3.788;2022-10-16T11:17:56;21.40;99.90
27226;DHT22;14732;51.074;3.788;2022-10-16T11:20:34;21.20;99.90
27226;DHT22;14732;51.074;3.788;2022-10-16T11:26:35;20.90;99.90
27226;DHT22;14732;51.074;3.788;2022-10-16T11:56:32;21.30;99.90
27226;DHT22;14732;51.074;3.788;2022-10-16T12:09:21;21.30;99.90
27226;DHT22;14732;51.074;3.788;2022-10-16T12:19:20;21.20;99.90
27226;DHT22;14732;51.074;3.788;2022-10-16T12:21:48;21.20;99.90
27226;DHT22;14732;51.074;3.788;2022-10-16T12:44:58;21.40;99.90
27226;DHT22;14732;51.074;3.788;2022-10-16T12:50:01;21.60;99.90
27226;DHT22;14732;51.074;3.788;2022-10-16T12:59:17;21.90;99.90
27226;DHT22;14732;51.074;3.788;2022-10-16T13:29:06;21.20;99.90
27226;DHT22;14732;51.074;3.788;2022-10-16T13:31:44;20.90;99.90
27226;DHT22;14732;51.074;3.788;2022-10-16T13:34:18;20.90;99.90
27226;DHT22;14732;51.074;3.788;2022-10-16T13:36:50;21.10;99.90
27226;DHT22;14732;51.074;3.788;2022-10-16T13:42:12;21.40;99.90
27226;DHT22;14732;51.074;3.788;2022-10-16T13:44:48;21.40;99.90
27226;DHT22;14732;51.074;3.788;2022-10-16T13:47:20;21.50;99.90
27226;DHT22;14732;51.074;3.788;2022-10-16T13:50:02;21.60;99.90
27226;DHT22;14732;51.074;3.788;2022-10-16T13:56:22;21.40;99.90
27226;DHT22;14732;51.074;3.788;2022-10-16T13:59:34;21.20;99.90
27226;DHT22;14732;51.074;3.788;2022-10-16T14:02:17;21.30;99.90
27226;DHT22;14732;51.074;3.788;2022-10-16T14:04:47;20.90;99.90
27226;DHT22;14732;51.074;3.788;2022-10-16T14:07:23;20.60;99.90
27226;DHT22;14732;51.074;3.788;2022-10-16T14:09:53;20.40;99.90
27226;DHT22;14732;51.074;3.788;2022-10-16T14:12:20;20.60;99.90
27226;DHT22;14732;51.074;3.788;2022-10-16T14:18:19;20.20;99.90
27226;DHT22;14732;51.074;3.788;2022-10-16T14:20:47;19.90;99.90
27226;DHT22;14732;51.074;3.788;2022-10-16T14:26:45;20.40;99.90
27226;DHT22;14732;51.074;3.788;2022-10-16T14:29:18;20.20;99.90
27226;DHT22;14732;51.074;3.788;2022-10-16T14:32:02;20.40;99.90
27226;DHT22;14732;51.074;3.788;2022-10-16T14:34:35;20.50;99.90
27226;DHT22;14732;51.074;3.788;2022-10-16T14:38:14;20.40;99.90
27226;DHT22;14732;51.074;3.788;2022-10-16T14:41:10;20.60;99.90
27226;DHT22;14732;51.074;3.788;2022-10-16T14:50:55;20.50;99.90
27226;DHT22;14732;51.074;3.788;2022-10-16T15:10:45;20.20;99.90
27226;DHT22;14732;51.074;3.788;2022-10-16T15:13:14;20.20;99.90
27226;DHT22;14732;51.074;3.788;2022-10-16T15:15:44;20.30;99.90
27226;DHT22;14732;51.074;3.788;2022-10-16T15:18:10;20.20;99.90
27226;DHT22;14732;51.074;3.788;2022-10-16T15:20:37;20.10;99.90
27226;DHT22;14732;51.074;3.788;2022-10-16T15:23:06;20.20;99.90
27226;DHT22;14732;51.074;3.788;2022-10-16T15:25:43;20.20;99.90
27226;DHT22;14732;51.074;3.788;2022-10-16T15:28:10;20.20;99.90
27226;DHT22;14732;51.074;3.788;2022-10-16T15:30:38;20.10;99.90
27226;DHT22;14732;51.074;3.788;2022-10-16T15:33:08;20.10;99.90
27226;DHT22;14732;51.074;3.788;2022-10-16T15:35:36;20.00;99.90
27226;DHT22;14732;51.074;3.788;2022-10-16T15:38:01;19.90;99.90
27226;DHT22;14732;51.074;3.788;2022-10-16T15:40:27;19.80;99.90
27226;DHT22;14732;51.074;3.788;2022-10-16T15:42:53;19.80;99.90
27226;DHT22;14732;51.074;3.788;2022-10-16T15:45:18;19.80;99.90
27226;DHT22;14732;51.074;3.788;2022-10-16T15:47:45;19.80;99.90
27226;DHT22;14732;51.074;3.788;2022-10-16T15:50:12;19.70;99.90
27226;DHT22;14732;51.074;3.788;2022-10-16T15:52:39;19.70;99.90
27226;DHT22;14732;51.074;3.788;2022-10-16T15:55:09;19.60;99.90
27226;DHT22;14732;51.074;3.788;2022-10-16T15:57:37;19.70;99.90
27226;DHT22;14732;51.074;3.788;2022-10-16T16:00:06;19.50;99.90
27226;DHT22;14732;51.074;3.788;2022-10-16T16:02:33;19.50;99.90
27226;DHT22;14732;51.074;3.788;2022-10-16T16:04:58;19.50;99.90
27226;DHT22;14732;51.074;3.788;2022-10-16T16:07:24;19.60;99.90
27226;DHT22;14732;51.074;3.788;2022-10-16T16:09:49;19.60;99.90
27226;DHT22;14732;51.074;3.788;2022-10-16T16:12:15;19.70;99.90
27226;DHT22;14732;51.074;3.788;2022-10-16T16:14:41;19.70;99.90
27226;DHT22;14732;51.074;3.788;2022-10-16T16:17:07;19.70;99.90
27226;DHT22;14732;51.074;3.788;2022-10-16T16:19:33;19.70;99.90
27226;DHT22;14732;51.074;3.788;2022-10-16T16:21:59;19.70;99.90
27226;DHT22;14732;51.074;3.788;2022-10-16T16:24:24;19.70;99.90
27226;DHT22;14732;51.074;3.788;2022-10-16T16:26:50;19.60;99.90
27226;DHT22;14732;51.074;3.788;2022-10-16T16:29:16;19.50;99.90
27226;DHT22;14732;51.074;3.788;2022-10-16T16:31:42;19.50;99.90
27226;DHT22;14732;51.074;3.788;2022-10-16T16:34:08;19.40;99.90
27226;DHT22;14732;51.074;3.788;2022-10-16T16:36:35;19.30;99.90
27226;DHT22;14732;51.074;3.788;2022-10-16T16:39:02;19.20;99.90
27226;DHT22;14732;51.074;3.788;2022-10-16T16:41:28;19.20;99.90
27226;DHT22;14732;51.074;3.788;2022-10-16T16:44:01;19.20;99.90
27226;DHT22;14732;51.074;3.788;2022-10-16T16:46:27;19.10;99.90
27226;DHT22;14732;51.074;3.788;2022-10-16T16:48:52;18.90;99.90
27226;DHT22;14732;51.074;3.788;2022-10-16T16:51:20;18.90;99.90
27226;DHT22;14732;51.074;3.788;2022-10-16T16:53:48;19.00;99.90
27226;DHT22;14732;51.074;3.788;2022-10-16T16:56:15;18.90;99.90
27226;DHT22;14732;51.074;3.788;2022-10-16T16:58:41;18.90;99.90
27226;DHT22;14732;51.074;3.788;2022-10-16T17:01:09;18.90;99.90
27226;DHT22;14732;51.074;3.788;2022-10-16T17:03:35;18.90;99.90
27226;DHT22;14732;51.074;3.788;2022-10-16T17:06:04;18.90;99.90
27226;DHT22;14732;51.074;3.788;2022-10-16T17:08:30;18.80;99.90
27226;DHT22;14732;51.074;3.788;2022-10-16T17:10:57;18.80;99.90
27226;DHT22;14732;51.074;3.788;2022-10-16T17:13:24;18.80;99.90
27226;DHT22;14732;51.074;3.788;2022-10-16T17:15:51;18.70;99.90
27226;DHT22;14732;51.074;3.788;2022-10-16T17:18:18;18.70;99.90
27226;DHT22;14732;51.074;3.788;2022-10-16T17:20:44;18.80;99.90
27226;DHT22;14732;51.074;3.788;2022-10-16T17:23:10;18.70;99.90
27226;DHT22;14732;51.074;3.788;2022-10-16T17:25:37;18.70;99.90
27226;DHT22;14732;51.074;3.788;2022-10-16T17:28:04;18.60;99.90
27226;DHT22;14732;51.074;3.788;2022-10-16T17:30:31;18.50;99.90
27226;DHT22;14732;51.074;3.788;2022-10-16T17:32:58;18.60;99.90
27226;DHT22;14732;51.074;3.788;2022-10-16T17:35:24;18.70;99.90
27226;DHT22;14732;51.074;3.788;2022-10-16T17:37:51;18.70;99.90
27226;DHT22;14732;51.074;3.788;2022-10-16T17:40:17;18.70;99.90
27226;DHT22;14732;51.074;3.788;2022-10-16T17:42:43;18.70;99.90
27226;DHT22;14732;51.074;3.788;2022-10-16T17:45:09;18.60;99.90
27226;DHT22;14732;51.074;3.788;2022-10-16T17:47:35;18.40;99.90
27226;DHT22;14732;51.074;3.788;2022-10-16T17:50:02;18.40;99.90
27226;DHT22;14732;51.074;3.788;2022-10-16T17:52:28;18.40;99.90
27226;DHT22;14732;51.074;3.788;2022-10-16T17:54:53;18.30;99.90
27226;DHT22;14732;51.074;3.788;2022-10-16T17:57:20;18.30;99.90
27226;DHT22;14732;51.074;3.788;2022-10-16T17:59:47;18.20;99.90
27226;DHT22;14732;51.074;3.788;2022-10-16T18:02:12;18.10;99.90
27226;DHT22;14732;51.074;3.788;2022-10-16T18:04:39;18.10;99.90
27226;DHT22;14732;51.074;3.788;2022-10-16T18:07:04;18.10;99.90
27226;DHT22;14732;51.074;3.788;2022-10-16T18:09:31;18.00;99.90
27226;DHT22;14732;51.074;3.788;2022-10-16T18:11:57;18.10;99.90
27226;DHT22;14732;51.074;3.788;2022-10-16T18:14:28;17.90;99.90
27226;DHT22;14732;51.074;3.788;2022-10-16T18:16:56;17.90;99.90
27226;DHT22;14732;51.074;3.788;2022-10-16T18:19:23;17.90;99.90
27226;DHT22;14732;51.074;3.788;2022-10-16T18:21:49;17.90;99.90
27226;DHT22;14732;51.074;3.788;2022-10-16T18:24:16;17.70;99.90
27226;DHT22;14732;51.074;3.788;2022-10-16T18:26:42;17.70;99.90
27226;DHT22;14732;51.074;3.788;2022-10-16T18:29:09;17.70;99.90
27226;DHT22;14732;51.074;3.788;2022-10-16T18:31:35;17.70;99.90
27226;DHT22;14732;51.074;3.788;2022-10-16T18:34:01;17.90;99.90
27226;DHT22;14732;51.074;3.788;2022-10-16T18:36:29;17.90;99.90
27226;DHT22;14732;51.074;3.788;2022-10-16T18:38:57;17.80;99.90
27226;DHT22;14732;51.074;3.788;2022-10-16T18:41:24;17.70;99.90
27226;DHT22;14732;51.074;3.788;2022-10-16T18:43:49;17.80;99.90
27226;DHT22;14732;51.074;3.788;2022-10-16T18:46:17;17.90;99.90
27226;DHT22;14732;51.074;3.788;2022-10-16T18:48:44;18.00;99.90
27226;DHT22;14732;51.074;3.788;2022-10-16T18:51:26;18.00;99.90
27226;DHT22;14732;51.074;3.788;2022-10-16T18:53:56;18.00;99.90
27226;DHT22;14732;51.074;3.788;2022-10-16T18:56:23;17.90;99.90
27226;DHT22;14732;51.074;3.788;2022-10-16T18:58:50;17.80;99.90
27226;DHT22;14732;51.074;3.788;2022-10-16T19:01:20;17.80;99.90
27226;DHT22;14732;51.074;3.788;2022-10-16T19:03:47;17.80;99.90
27226;DHT22;14732;51.074;3.788;2022-10-16T19:06:15;17.80;99.90
27226;DHT22;14732;51.074;3.788;2022-10-16T19:08:41;17.80;99.90
27226;DHT22;14732;51.074;3.788;2022-10-16T19:11:18;17.80;99.90
27226;DHT22;14732;51.074;3.788;2022-10-16T19:13:45;17.70;99.90
27226;DHT22;14732;51.074;3.788;2022-10-16T19:16:33;17.60;99.90
27226;DHT22;14732;51.074;3.788;2022-10-16T19:19:03;17.60;99.90
27226;DHT22;14732;51.074;3.788;2022-10-16T19:21:29;17.60;99.90
27226;DHT22;14732;51.074;3.788;2022-10-16T19:23:57;17.50;99.90
27226;DHT22;14732;51.074;3.788;2022-10-16T19:26:24;17.50;99.90
27226;DHT22;14732;51.074;3.788;2022-10-16T19:28:51;17.50;99.90
27226;DHT22;14732;51.074;3.788;2022-10-16T19:31:20;17.50;99.90
27226;DHT22;14732;51.074;3.788;2022-10-16T19:33:49;17.40;99.90